الصفحة الرئيسية
METAR-TAF:

METAR-TAF

مطار :

دكار, السنغال

مطار ليوبولد سيدار سنغور الدولي

دائرة عرض: 14-44N, خط طول: 017-30W, ارتفاع: 27 متر

مراقبة الطقس الحالي

تاريخ ووقت الإصدار 44 دقيقة قبل الساعة 03:00UTC
ريح 5 عقدة من الشمال الشرقي
درجة الحرارة 17°درجة مئوية
الرطوبة 88%
ضغط 1016 hPa
الرؤية: 6000 متر

METAR: GOOY 190300Z 04005KT 6000 NSC 17/15 Q1016

زمن: 03:44 (03:44 UTC)

توقعات

تاريخ ووقت الإصدار 4ساعات و 14 دقيقة قبل الساعة 23:30UTC
التوقعات صالحة من19 الساعة 00 UTC إلى 20 الساعة 06 UTC
ريح 15 عقدة من الشمال/الشمال الشرقي
الرؤية: 6000 متر

TAF: GOOY 182330Z 1900/2006 02015KT 6000 NSC

أرصاد الطقس والتوقعات من أكثر من 4000 مطار (تقارير الطقس للمطار METAR والتنبؤ بالطقس بالمطارTAF).

المحطات المتاحة هي النقط الصفراء والحمراء على الخريطة.

حرك المؤشر فوق النقطة لمعرفة اسم المحطة.

ثم انقر لمعرفة أرصاد وتوقعات الطقس.

لتغيير الخارطة: اضغط على الأزرار الخضراء مع رمز الصليب الأسود للتكبير. على الزر الأخضر مع شرطة للتصغير، أو على الأسهم الخضراء للخرائط المجاورة.


METAR-TAF: